Time;durP1;ratioP1;P1;durP2;ratioP2;P2;SDS_P1;SDS_P2;PMS_P1;PMS_P2;Temp;Humidity;BMP_temperature;BMP_pressure;BME280_temperature;BME280_humidity;BME280_pressure;Samples;Min_cycle;Max_cycle;Signal;HPM_P1;HPM_P2
2022/11/13 00:01:11;;;;;;;46.27;33.50;;;8.40;99.90;;;;;;5053439;28;20230;-87
2022/11/13 00:03:38;;;;;;;43.40;33.40;;;8.20;99.90;;;;;;5053785;28;20186;-87
2022/11/13 00:06:12;;;;;;;41.63;32.43;;;8.20;99.90;;;;;;5053490;28;20222;-86
2022/11/13 00:08:44;;;;;;;41.90;31.10;;;8.20;99.90;;;;;;5053206;28;20198;-87
2022/11/13 00:11:14;;;;;;;43.95;37.17;;;8.10;99.90;;;;;;5052975;28;20448;-87
2022/11/13 00:13:42;;;;;;;37.73;31.50;;;8.20;99.90;;;;;;5053676;28;20224;-87
2022/11/13 00:16:17;;;;;;;44.10;32.00;;;8.20;99.90;;;;;;5053464;28;20187;-86
2022/11/13 00:18:44;;;;;;;39.30;29.43;;;8.20;99.90;;;;;;5053576;28;20204;-87
2022/11/13 00:21:14;;;;;;;39.60;30.27;;;8.10;99.90;;;;;;5053422;28;20261;-87
2022/11/13 00:23:44;;;;;;;37.87;29.73;;;8.10;99.90;;;;;;5053251;28;20211;-87
2022/11/13 00:26:15;;;;;;;40.17;29.00;;;8.10;99.90;;;;;;5053514;28;20203;-87
2022/11/13 00:28:42;;;;;;;39.20;30.53;;;8.00;99.90;;;;;;5053381;28;20205;-87
2022/11/13 00:31:11;;;;;;;42.50;29.47;;;8.00;99.90;;;;;;5053282;28;20207;-87
2022/11/13 00:33:38;;;;;;;40.03;29.50;;;8.00;99.90;;;;;;5053280;28;20205;-86
2022/11/13 00:36:07;;;;;;;39.07;30.43;;;8.00;99.90;;;;;;5053369;28;20194;-87
2022/11/13 00:38:34;;;;;;;40.70;30.40;;;8.00;99.90;;;;;;5052719;28;20214;-86
2022/11/13 00:41:05;;;;;;;45.53;40.03;;;8.10;99.90;;;;;;5052457;28;20447;-87
2022/11/13 00:43:34;;;;;;;45.93;33.83;;;8.20;99.90;;;;;;5053005;28;20211;-86
2022/11/13 00:46:02;;;;;;;45.50;33.83;;;8.20;99.90;;;;;;5053047;28;20256;-87
2022/11/13 00:48:30;;;;;;;44.43;32.00;;;8.20;99.90;;;;;;5053523;28;20195;-86
2022/11/13 00:50:59;;;;;;;49.13;32.27;;;8.10;99.90;;;;;;5053436;28;20190;-87
2022/11/13 00:53:26;;;;;;;55.93;35.00;;;8.00;99.90;;;;;;5053235;28;20195;-87
2022/11/13 00:55:53;;;;;;;50.87;32.37;;;7.80;99.90;;;;;;5053197;28;20574;-86
2022/11/13 00:58:24;;;;;;;50.33;31.73;;;7.80;99.90;;;;;;5054385;28;20209;-86
2022/11/13 01:00:53;;;;;;;44.83;30.47;;;7.70;99.90;;;;;;5057439;28;20226;-86
2022/11/13 01:03:20;;;;;;;65.17;37.27;;;7.70;99.90;;;;;;5057332;28;20264;-87
2022/11/13 01:05:48;;;;;;;54.53;35.13;;;7.70;99.90;;;;;;5056905;28;20230;-85
2022/11/13 01:08:17;;;;;;;65.93;36.33;;;7.70;99.90;;;;;;5056911;28;20195;-87
2022/11/13 01:10:49;;;;;;;62.45;46.17;;;7.60;99.90;;;;;;5056928;28;20436;-87
2022/11/13 01:13:16;;;;;;;53.40;35.13;;;7.80;99.90;;;;;;5057220;28;20209;-87
2022/11/13 01:15:45;;;;;;;49.23;34.33;;;7.80;99.90;;;;;;5056954;28;20190;-87
2022/11/13 01:18:13;;;;;;;50.33;34.20;;;7.80;99.90;;;;;;5056723;28;20206;-87
2022/11/13 01:20:40;;;;;;;44.70;32.67;;;7.80;99.90;;;;;;5056581;28;20226;-86
2022/11/13 01:23:09;;;;;;;44.73;32.00;;;7.80;99.90;;;;;;5056199;28;20199;-87
2022/11/13 01:25:39;;;;;;;45.37;31.77;;;7.80;99.90;;;;;;5056722;28;20190;-87
2022/11/13 01:28:08;;;;;;;50.13;31.90;;;7.80;99.90;;;;;;5056883;28;20195;-87
2022/11/13 01:30:35;;;;;;;41.57;31.57;;;7.70;99.90;;;;;;5056310;28;20209;-87
2022/11/13 01:33:04;;;;;;;44.37;31.70;;;7.60;99.90;;;;;;5056458;28;20199;-87
2022/11/13 01:35:31;;;;;;;48.03;32.37;;;7.60;99.90;;;;;;5056490;28;20209;-87
2022/11/13 01:37:58;;;;;;;43.23;30.67;;;7.60;99.90;;;;;;5056131;28;20661;-88
2022/11/13 01:40:24;;;;;;;48.90;33.00;;;7.60;99.90;;;;;;5056039;28;20226;-88
2022/11/13 01:42:51;;;;;;;48.50;32.30;;;7.60;99.90;;;;;;5055752;28;20214;-88
2022/11/13 01:45:55;;;;;;;50.67;33.40;;;7.60;99.90;;;;;;5056203;28;20194;-88
2022/11/13 01:48:35;;;;;;;71.53;36.00;;;7.50;99.90;;;;;;5055654;28;20202;-89
2022/11/13 01:51:03;;;;;;;56.27;34.47;;;7.40;99.90;;;;;;5055970;28;20186;-89
2022/11/13 01:53:31;;;;;;;65.67;37.40;;;7.20;99.90;;;;;;5056093;28;20203;-88
2022/11/13 01:55:58;;;;;;;73.70;36.13;;;7.20;99.90;;;;;;5055805;28;20212;-88
2022/11/13 01:58:25;;;;;;;84.00;37.57;;;7.30;99.90;;;;;;5055582;28;20650;-88
2022/11/13 02:00:52;;;;;;;62.67;36.07;;;7.30;99.90;;;;;;5055860;28;20218;-89
2022/11/13 02:03:19;;;;;;;59.30;36.30;;;7.30;99.90;;;;;;5056029;28;20194;-88
2022/11/13 02:05:47;;;;;;;59.73;35.07;;;7.30;99.90;;;;;;5055577;28;20333;-88
2022/11/13 02:08:15;;;;;;;69.90;43.07;;;7.30;99.90;;;;;;5055184;28;20789;-88
2022/11/13 02:10:43;;;;;;;54.87;35.47;;;7.30;99.90;;;;;;5054401;28;20222;-88
2022/11/13 02:13:10;;;;;;;48.93;33.60;;;7.30;99.90;;;;;;5055438;28;20199;-88
2022/11/13 02:15:39;;;;;;;47.20;31.67;;;7.20;99.90;;;;;;5055439;28;20203;-87
2022/11/13 02:18:13;;;;;;;48.30;33.53;;;7.10;99.90;;;;;;5055469;28;20214;-89
2022/11/13 02:20:50;;;;;;;53.00;32.23;;;7.20;99.90;;;;;;5054977;28;20727;-88
2022/11/13 02:23:24;;;;;;;65.60;34.43;;;7.20;99.90;;;;;;5055524;28;20190;-89
2022/11/13 02:25:57;;;;;;;68.33;35.10;;;7.20;99.90;;;;;;5055105;28;20202;-88
2022/11/13 02:28:25;;;;;;;57.03;33.73;;;7.20;99.90;;;;;;5055373;28;20222;-88
2022/11/13 02:30:52;;;;;;;80.67;35.93;;;7.10;99.90;;;;;;5055280;28;20573;-88
2022/11/13 02:33:25;;;;;;;66.43;33.77;;;7.10;99.90;;;;;;5055478;28;20206;-87
2022/11/13 02:35:52;;;;;;;46.10;31.17;;;7.10;99.90;;;;;;5054782;28;20730;-88
2022/11/13 02:38:19;;;;;;;62.40;45.80;;;7.20;99.90;;;;;;5054193;28;20429;-88
2022/11/13 02:40:49;;;;;;;45.23;34.10;;;7.30;99.90;;;;;;5037275;28;20717;-88
2022/11/13 02:43:17;;;;;;;48.73;32.50;;;7.30;99.90;;;;;;5055135;28;20207;-88
2022/11/13 02:45:45;;;;;;;44.73;32.07;;;7.20;99.90;;;;;;5054953;28;20226;-88
2022/11/13 02:48:12;;;;;;;45.23;32.00;;;7.10;99.90;;;;;;5054725;28;20191;-88
2022/11/13 02:50:39;;;;;;;48.60;32.87;;;7.10;99.90;;;;;;5055082;28;20191;-88
2022/11/13 02:53:07;;;;;;;45.40;31.20;;;7.00;99.90;;;;;;5054671;28;20206;-88
2022/11/13 02:55:36;;;;;;;49.67;31.77;;;7.00;99.90;;;;;;5054813;28;20205;-88
2022/11/13 02:58:03;;;;;;;50.03;32.30;;;7.00;99.90;;;;;;5054520;28;20210;-87
2022/11/13 03:00:31;;;;;;;37.10;28.27;;;6.90;99.90;;;;;;5054716;28;20666;-88
2022/11/13 03:02:58;;;;;;;36.47;28.73;;;6.80;99.90;;;;;;5054570;28;20187;-88
2022/11/13 03:05:25;;;;;;;38.10;27.50;;;6.80;99.90;;;;;;5054665;28;20191;-88
2022/11/13 03:07:52;;;;;;;38.63;28.13;;;6.80;99.90;;;;;;5054771;28;20193;-88
2022/11/13 03:10:19;;;;;;;37.67;27.73;;;6.80;99.90;;;;;;5054499;28;20214;-88
2022/11/13 03:12:46;;;;;;;39.03;27.57;;;6.70;99.90;;;;;;5054451;28;20206;-88
2022/11/13 03:15:13;;;;;;;38.20;28.27;;;6.60;99.90;;;;;;5054441;28;20202;-88
2022/11/13 03:17:42;;;;;;;36.20;27.27;;;6.60;99.90;;;;;;5036678;28;20195;-88
2022/11/13 03:20:09;;;;;;;38.80;27.00;;;6.60;99.90;;;;;;5054033;28;20238;-88
2022/11/13 03:22:37;;;;;;;38.67;27.60;;;6.60;99.90;;;;;;5054443;28;20213;-89
2022/11/13 03:25:05;;;;;;;45.87;28.33;;;6.50;99.90;;;;;;5054250;28;20209;-88
2022/11/13 03:27:32;;;;;;;52.80;28.97;;;6.50;99.90;;;;;;5054370;28;20251;-88
2022/11/13 03:29:59;;;;;;;46.07;29.77;;;6.50;99.90;;;;;;5053934;28;20209;-87
2022/11/13 03:32:26;;;;;;;36.13;28.67;;;6.60;99.90;;;;;;5050284;28;20207;-88
2022/11/13 03:34:54;;;;;;;45.87;27.80;;;6.60;99.90;;;;;;5051559;28;20654;-88
2022/11/13 03:37:21;;;;;;;35.60;27.00;;;6.60;99.90;;;;;;5045151;28;20581;-89
2022/11/13 03:39:48;;;;;;;37.33;27.90;;;6.50;99.90;;;;;;5053373;28;20229;-88
2022/11/13 03:42:14;;;;;;;35.07;25.83;;;6.50;99.90;;;;;;5053858;28;20249;-88
2022/11/13 03:44:41;;;;;;;36.00;27.23;;;6.40;99.90;;;;;;5053483;28;20225;-87
2022/11/13 03:47:08;;;;;;;37.00;26.80;;;6.40;99.90;;;;;;5053514;28;20198;-88
2022/11/13 03:49:35;;;;;;;33.13;25.73;;;6.30;99.90;;;;;;5053799;28;20203;-88
2022/11/13 03:52:03;;;;;;;30.73;23.50;;;6.40;99.90;;;;;;5053862;28;20206;-88
2022/11/13 03:54:30;;;;;;;30.37;24.50;;;6.40;99.90;;;;;;5053443;28;20207;-88
2022/11/13 03:56:57;;;;;;;31.40;24.53;;;6.30;99.90;;;;;;5053613;28;20207;-88
2022/11/13 03:59:24;;;;;;;32.33;24.33;;;6.30;99.90;;;;;;5053682;28;20256;-88
2022/11/13 04:01:52;;;;;;;30.70;24.63;;;6.40;99.90;;;;;;5053322;28;20230;-88
2022/11/13 04:04:19;;;;;;;29.90;23.33;;;6.40;99.90;;;;;;5053512;28;20194;-89
2022/11/13 04:06:46;;;;;;;36.42;32.53;;;6.40;99.90;;;;;;5051563;28;20444;-87
2022/11/13 04:09:14;;;;;;;29.97;25.67;;;6.60;99.90;;;;;;5050071;28;20206;-89
2022/11/13 04:11:41;;;;;;;31.80;25.57;;;6.50;99.90;;;;;;5047082;28;20313;-86
2022/11/13 04:14:07;;;;;;;33.63;26.50;;;6.40;99.90;;;;;;5042321;28;20205;-89
2022/11/13 04:16:34;;;;;;;28.03;23.17;;;6.40;99.90;;;;;;5041597;28;20670;-88
2022/11/13 04:19:01;;;;;;;29.73;24.33;;;6.50;99.90;;;;;;5041747;28;20211;-88
2022/11/13 04:21:28;;;;;;;31.47;23.77;;;6.40;99.90;;;;;;5043080;28;20249;-89
2022/11/13 04:23:54;;;;;;;28.70;22.23;;;6.40;99.90;;;;;;5035981;28;20203;-88
2022/11/13 04:26:24;;;;;;;28.70;23.30;;;6.50;99.90;;;;;;5048371;28;20575;-88
2022/11/13 04:28:50;;;;;;;28.57;22.53;;;6.40;99.90;;;;;;5053081;28;20198;-88
2022/11/13 04:31:17;;;;;;;27.23;22.33;;;6.40;99.90;;;;;;5052964;28;20206;-88
2022/11/13 04:33:44;;;;;;;28.97;23.17;;;6.40;99.90;;;;;;5052387;28;20202;-89
2022/11/13 04:36:12;;;;;;;28.23;23.10;;;6.40;99.90;;;;;;5052986;28;20206;-88
2022/11/13 04:38:38;;;;;;;28.10;23.23;;;6.30;99.90;;;;;;5053284;28;20214;-88
2022/11/13 04:43:52;;;;;;;26.33;23.37;;;6.30;99.90;;;;;;5053240;28;20576;-89
2022/11/13 04:46:19;;;;;;;25.30;22.40;;;6.30;99.90;;;;;;5052777;28;20693;-89
2022/11/13 04:48:45;;;;;;;29.07;23.83;;;6.30;99.90;;;;;;5053409;28;20191;-87
2022/11/13 04:51:13;;;;;;;28.43;23.63;;;6.30;99.90;;;;;;5053005;28;20198;-89
2022/11/13 04:53:40;;;;;;;26.67;22.17;;;6.30;99.90;;;;;;5052783;28;20209;-89
2022/11/13 04:56:07;;;;;;;29.80;22.93;;;6.30;99.90;;;;;;5052855;28;20676;-89
2022/11/13 04:58:34;;;;;;;27.30;22.90;;;6.30;99.90;;;;;;5052620;28;20209;-88
2022/11/13 05:01:02;;;;;;;31.70;23.40;;;6.30;99.90;;;;;;5052720;28;20226;-89
2022/11/13 05:03:35;;;;;;;31.53;23.57;;;6.30;99.90;;;;;;5052924;28;20293;-89
2022/11/13 05:06:04;;;;;;;28.30;22.40;;;6.20;99.90;;;;;;5052953;28;20245;-89
2022/11/13 05:08:31;;;;;;;29.93;23.10;;;6.30;99.90;;;;;;5052822;28;20203;-89
2022/11/13 05:11:00;;;;;;;31.43;22.33;;;6.40;99.90;;;;;;5052796;28;20202;-88
2022/11/13 05:13:31;;;;;;;25.27;21.57;;;6.40;99.90;;;;;;5052597;28;20211;-88
2022/11/13 05:16:07;;;;;;;25.87;22.00;;;6.40;99.90;;;;;;5052856;28;20289;-89
2022/11/13 05:18:35;;;;;;;26.60;21.90;;;6.40;99.90;;;;;;5052884;28;20190;-88
2022/11/13 05:21:02;;;;;;;27.20;22.27;;;6.40;99.90;;;;;;5052647;28;20299;-88
2022/11/13 05:23:29;;;;;;;28.63;21.70;;;6.40;99.90;;;;;;5052457;28;20780;-87
2022/11/13 05:26:01;;;;;;;31.57;22.23;;;6.40;99.90;;;;;;5052873;28;20341;-88
2022/11/13 05:28:28;;;;;;;28.87;22.27;;;6.20;99.90;;;;;;5052326;28;20202;-88
2022/11/13 05:31:04;;;;;;;34.60;24.07;;;6.10;99.90;;;;;;5052705;28;20205;-88
2022/11/13 05:33:31;;;;;;;33.17;24.47;;;6.20;99.90;;;;;;5052905;28;20191;-88
2022/11/13 05:36:02;;;;;;;40.47;25.50;;;6.30;99.90;;;;;;5052564;28;20225;-87
2022/11/13 05:38:29;;;;;;;36.03;25.37;;;6.20;99.90;;;;;;5052390;28;20237;-87
2022/11/13 05:41:00;;;;;;;33.87;24.00;;;6.10;99.90;;;;;;5052520;28;20234;-89
2022/11/13 05:43:27;;;;;;;33.63;23.10;;;6.10;99.90;;;;;;5052351;28;20187;-88
2022/11/13 05:46:00;;;;;;;30.77;22.83;;;6.00;99.90;;;;;;5056336;28;20190;-89
2022/11/13 05:48:28;;;;;;;33.67;24.63;;;6.00;99.90;;;;;;5056237;28;20202;-89
2022/11/13 05:51:01;;;;;;;32.37;23.10;;;6.00;99.90;;;;;;5056221;28;20240;-87
2022/11/13 05:53:28;;;;;;;32.63;23.37;;;5.90;99.90;;;;;;5055860;28;20213;-88
2022/11/13 05:55:55;;;;;;;36.60;23.83;;;6.00;99.90;;;;;;5055936;28;20209;-89
2022/11/13 05:58:21;;;;;;;32.50;23.27;;;5.90;99.90;;;;;;5055405;28;20579;-89
2022/11/13 06:00:48;;;;;;;28.63;22.70;;;6.00;99.90;;;;;;5055566;28;20213;-88
2022/11/13 06:03:15;;;;;;;32.07;23.37;;;6.10;99.90;;;;;;5055674;28;20203;-89
2022/11/13 06:05:43;;;;;;;39.22;25.70;;;6.10;99.90;;;;;;5037651;28;20433;-89
2022/11/13 06:08:10;;;;;;;40.43;25.43;;;6.10;99.90;;;;;;5055605;28;20202;-89
2022/11/13 06:10:38;;;;;;;47.07;24.13;;;6.10;99.90;;;;;;5055535;28;20206;-89
2022/11/13 06:13:05;;;;;;;62.40;25.77;;;6.10;99.90;;;;;;5055371;28;20297;-88
2022/11/13 06:15:31;;;;;;;48.93;24.27;;;6.10;99.90;;;;;;5055542;28;20207;-88
2022/11/13 06:18:00;;;;;;;64.60;25.40;;;6.20;99.90;;;;;;5055687;28;20611;-89
2022/11/13 06:20:27;;;;;;;46.63;24.83;;;6.10;99.90;;;;;;5055567;28;20206;-89
2022/11/13 06:22:58;;;;;;;70.57;24.93;;;6.10;99.90;;;;;;5055557;28;20218;-87
2022/11/13 06:25:26;;;;;;;51.97;25.37;;;6.00;99.90;;;;;;5055335;28;20191;-88
2022/11/13 06:27:54;;;;;;;62.07;25.27;;;6.00;99.90;;;;;;5055295;28;20202;-89
2022/11/13 06:30:21;;;;;;;50.07;23.93;;;5.90;99.90;;;;;;5055300;28;20203;-88
2022/11/13 06:32:52;;;;;;;47.93;22.40;;;5.90;99.90;;;;;;5055178;28;20215;-88
2022/11/13 06:35:19;;;;;;;41.10;23.30;;;6.00;99.90;;;;;;5037424;28;20187;-87
2022/11/13 06:37:47;;;;;;;30.23;21.43;;;6.00;99.90;;;;;;5054990;28;20557;-89
2022/11/13 06:40:16;;;;;;;30.10;21.27;;;6.00;99.90;;;;;;5054889;28;20225;-89
2022/11/13 06:42:45;;;;;;;25.83;20.20;;;5.90;99.90;;;;;;5055145;28;20226;-88
2022/11/13 06:45:11;;;;;;;38.53;22.83;;;5.90;99.90;;;;;;5054681;28;20202;-86
2022/11/13 06:47:38;;;;;;;32.70;22.30;;;5.90;99.90;;;;;;5055228;28;20195;-88
2022/11/13 06:50:07;;;;;;;31.40;22.53;;;5.90;99.90;;;;;;5054578;28;20665;-88
2022/11/13 06:52:34;;;;;;;31.37;22.73;;;5.90;99.90;;;;;;5054238;28;20222;-89
2022/11/13 06:55:01;;;;;;;42.17;24.07;;;5.90;99.90;;;;;;5054347;28;20569;-89
2022/11/13 06:57:29;;;;;;;68.73;25.37;;;5.90;99.90;;;;;;5054135;28;20201;-88
2022/11/13 06:59:57;;;;;;;62.27;25.20;;;5.80;99.90;;;;;;5054745;28;20205;-88
2022/11/13 07:02:24;;;;;;;48.23;23.00;;;5.70;99.90;;;;;;5054875;28;20238;-88
2022/11/13 07:04:51;;;;;;;65.43;24.30;;;5.70;99.90;;;;;;5060229;28;20202;-89
2022/11/13 07:07:18;;;;;;;53.05;34.47;;;5.60;99.90;;;;;;5053195;28;20433;-88
2022/11/13 07:09:44;;;;;;;34.67;24.63;;;5.40;99.90;;;;;;5035837;28;20669;-84
2022/11/13 07:12:11;;;;;;;29.37;21.87;;;5.40;99.90;;;;;;5062690;28;20198;-89
2022/11/13 07:14:39;;;;;;;27.97;21.50;;;5.60;99.90;;;;;;5065383;28;20201;-89
2022/11/13 07:17:06;;;;;;;28.07;21.83;;;5.60;99.90;;;;;;5065179;28;20194;-90
2022/11/13 07:19:33;;;;;;;27.07;20.87;;;5.60;99.90;;;;;;5053948;28;20203;-88
2022/11/13 07:22:00;;;;;;;25.97;20.63;;;5.70;99.90;;;;;;5053837;28;20207;-89
2022/11/13 07:24:26;;;;;;;28.70;21.80;;;5.70;99.90;;;;;;5064944;28;20183;-88
2022/11/13 07:26:54;;;;;;;32.70;23.90;;;5.80;99.90;;;;;;5063021;28;20199;-89
2022/11/13 07:29:21;;;;;;;39.43;25.53;;;5.80;99.90;;;;;;5062906;28;20190;-89
2022/11/13 07:31:49;;;;;;;30.37;22.90;;;5.90;99.90;;;;;;5065639;28;20209;-87
2022/11/13 07:34:17;;;;;;;32.93;22.70;;;5.80;99.90;;;;;;5065378;28;20675;-89
2022/11/13 07:36:44;;;;;;;40.77;25.00;;;5.80;99.90;;;;;;5065248;28;20196;-89
2022/11/13 07:39:11;;;;;;;35.60;24.03;;;5.80;99.90;;;;;;5062230;28;20214;-87
2022/11/13 07:41:37;;;;;;;33.00;23.77;;;5.80;99.90;;;;;;5054260;28;20686;-89
2022/11/13 07:44:05;;;;;;;28.03;21.93;;;5.80;99.90;;;;;;5054631;28;20198;-88
2022/11/13 07:46:33;;;;;;;29.17;22.00;;;5.80;99.90;;;;;;5060231;28;20199;-88
2022/11/13 07:49:01;;;;;;;32.37;22.43;;;5.80;99.90;;;;;;5058941;28;20191;-90
2022/11/13 07:51:28;;;;;;;31.83;22.60;;;5.70;99.90;;;;;;5063708;28;20634;-89
2022/11/13 07:53:57;;;;;;;30.87;22.43;;;5.70;99.90;;;;;;5063937;28;20222;-90
2022/11/13 07:56:24;;;;;;;31.67;22.63;;;5.80;99.90;;;;;;5071767;28;20198;-90
2022/11/13 07:58:51;;;;;;;27.73;21.50;;;5.80;99.90;;;;;;5063800;28;20203;-91
2022/11/13 08:01:17;;;;;;;30.33;21.60;;;5.80;99.90;;;;;;5074539;28;20198;-88
2022/11/13 08:03:44;;;;;;;27.40;20.80;;;5.80;99.90;;;;;;5066635;28;20195;-89
2022/11/13 08:06:12;;;;;;;32.85;27.98;;;5.80;99.90;;;;;;5061983;28;20426;-88
2022/11/13 08:08:39;;;;;;;29.83;23.93;;;6.20;99.90;;;;;;5062215;28;20277;-89
2022/11/13 08:11:08;;;;;;;29.67;22.43;;;6.10;99.90;;;;;;5044267;28;20198;-88
2022/11/13 08:13:37;;;;;;;27.87;21.77;;;6.10;99.90;;;;;;5053725;28;20602;-89
2022/11/13 08:16:05;;;;;;;27.43;21.97;;;6.10;99.90;;;;;;5052993;28;20194;-89
2022/11/13 08:18:32;;;;;;;26.13;21.27;;;6.10;99.90;;;;;;5052256;28;20198;-88
2022/11/13 08:21:02;;;;;;;27.00;21.37;;;6.20;99.90;;;;;;5063801;28;20191;-88
2022/11/13 08:23:30;;;;;;;28.63;22.80;;;6.30;99.90;;;;;;5058661;28;20241;-88
2022/11/13 08:25:57;;;;;;;28.40;23.27;;;6.30;99.90;;;;;;5062828;28;20186;-88
2022/11/13 08:28:24;;;;;;;28.57;22.00;;;6.30;99.90;;;;;;5052685;28;20182;-88
2022/11/13 08:30:51;;;;;;;29.70;20.93;;;6.40;99.90;;;;;;5052803;28;20205;-88
2022/11/13 08:33:17;;;;;;;27.70;20.57;;;6.50;99.90;;;;;;5053160;28;20202;-89
2022/11/13 08:35:52;;;;;;;36.00;30.65;;;6.60;99.90;;;;;;5052251;28;20429;-89
2022/11/13 08:38:19;;;;;;;31.00;24.10;;;6.50;99.90;;;;;;5052523;28;20379;-88
2022/11/13 08:40:47;;;;;;;32.33;24.33;;;6.50;99.90;;;;;;5053043;28;20217;-88
2022/11/13 08:43:14;;;;;;;31.57;22.97;;;6.60;99.90;;;;;;5053526;28;20606;-88
2022/11/13 08:45:41;;;;;;;28.60;21.80;;;6.60;99.90;;;;;;5053686;28;20740;-89
2022/11/13 08:48:09;;;;;;;28.73;22.63;;;6.70;99.90;;;;;;5055049;28;20199;-88
2022/11/13 08:50:37;;;;;;;28.43;23.27;;;6.70;99.90;;;;;;5052329;28;20673;-89
2022/11/13 08:53:05;;;;;;;29.07;23.13;;;6.70;99.90;;;;;;5052933;28;20210;-88
2022/11/13 08:55:33;;;;;;;30.80;22.53;;;6.90;99.90;;;;;;5053152;28;20225;-88
2022/11/13 08:58:03;;;;;;;29.83;22.73;;;7.00;99.90;;;;;;5053263;28;20206;-89
2022/11/13 09:00:31;;;;;;;31.83;23.47;;;7.10;99.90;;;;;;5052862;28;20198;-89
2022/11/13 09:03:01;;;;;;;31.52;25.83;;;7.30;99.90;;;;;;5052607;28;20810;-89
2022/11/13 09:05:28;;;;;;;31.40;23.10;;;7.40;99.90;;;;;;5052508;28;20504;-89
2022/11/13 09:07:57;;;;;;;29.77;23.10;;;7.60;99.90;;;;;;5052746;28;20202;-88
2022/11/13 09:10:24;;;;;;;29.33;22.73;;;7.80;99.90;;;;;;5053108;28;20202;-88
2022/11/13 09:12:56;;;;;;;27.13;22.37;;;7.80;99.90;;;;;;5053127;28;20202;-88
2022/11/13 09:15:29;;;;;;;30.63;21.93;;;8.00;99.90;;;;;;5052817;28;20538;-88
2022/11/13 09:17:57;;;;;;;26.83;22.30;;;8.10;99.90;;;;;;5052737;28;20207;-88
2022/11/13 09:20:24;;;;;;;24.27;21.67;;;8.20;99.90;;;;;;5055532;28;20244;-88
2022/11/13 09:22:57;;;;;;;29.27;22.90;;;8.20;99.90;;;;;;5056466;28;20214;-88
2022/11/13 09:25:24;;;;;;;25.63;21.73;;;8.20;99.90;;;;;;5065495;28;20186;-88
2022/11/13 09:27:55;;;;;;;28.70;22.60;;;8.20;99.90;;;;;;5066616;28;20195;-88
2022/11/13 09:30:22;;;;;;;25.63;21.43;;;8.40;99.90;;;;;;5064933;28;20194;-88
2022/11/13 09:32:56;;;;;;;27.17;21.37;;;8.40;99.90;;;;;;5065795;28;20199;-88
2022/11/13 09:35:33;;;;;;;22.77;20.23;;;8.50;99.90;;;;;;5064300;28;20263;-88
2022/11/13 09:38:00;;;;;;;25.13;20.67;;;8.70;99.90;;;;;;5055978;28;20206;-93
2022/11/13 09:40:33;;;;;;;23.43;19.93;;;8.80;99.90;;;;;;5056337;28;20214;-93
2022/11/13 09:43:02;;;;;;;22.17;19.43;;;8.90;99.90;;;;;;5036895;28;20234;-89
2022/11/13 09:45:31;;;;;;;23.07;18.83;;;8.90;99.90;;;;;;5036931;28;20191;-91
2022/11/13 09:48:12;;;;;;;21.77;17.63;;;9.00;99.90;;;;;;5037035;28;20191;-90
2022/11/13 09:50:40;;;;;;;21.20;18.57;;;9.10;99.90;;;;;;5036537;28;20194;-91
2022/11/13 09:53:09;;;;;;;19.70;17.63;;;9.20;99.90;;;;;;5054288;28;20293;-88
2022/11/13 09:55:45;;;;;;;21.13;16.83;;;9.30;99.90;;;;;;5076631;28;20197;-90
2022/11/13 09:58:19;;;;;;;20.10;16.77;;;9.20;99.90;;;;;;5076182;28;20202;-93
2022/11/13 10:00:46;;;;;;;20.07;16.53;;;9.30;99.90;;;;;;5077048;28;20223;-90
2022/11/13 10:03:29;;;;;;;19.73;17.63;;;9.20;99.90;;;;;;5075798;28;20447;-91
2022/11/13 10:06:04;;;;;;;17.50;15.70;;;9.30;99.90;;;;;;5076357;28;20221;-91
2022/11/13 10:08:40;;;;;;;16.50;14.60;;;9.40;99.90;;;;;;5076647;28;20251;-90
2022/11/13 10:11:16;;;;;;;16.70;14.90;;;9.40;99.90;;;;;;5075863;28;20193;-92
2022/11/13 10:13:46;;;;;;;16.73;14.80;;;9.40;99.90;;;;;;5076389;28;20201;-91
2022/11/13 10:16:20;;;;;;;16.50;14.00;;;9.40;99.90;;;;;;5076317;28;20208;-91
2022/11/13 10:18:50;;;;;;;18.90;14.47;;;9.40;99.90;;;;;;5075500;28;20205;-91
2022/11/13 10:21:29;;;;;;;16.90;14.30;;;9.50;99.90;;;;;;5076144;28;20293;-90
2022/11/13 10:23:57;;;;;;;16.50;13.77;;;9.50;99.90;;;;;;5075981;28;20218;-91
2022/11/13 10:26:27;;;;;;;15.17;13.63;;;9.60;99.90;;;;;;5076019;28;20660;-91
2022/11/13 10:29:01;;;;;;;16.73;15.03;;;9.60;99.90;;;;;;5077900;28;20197;-91
2022/11/13 10:31:28;;;;;;;16.53;14.83;;;9.70;99.90;;;;;;5075737;28;20710;-92
2022/11/13 10:33:57;;;;;;;15.13;13.63;;;9.70;99.90;;;;;;5076272;28;20205;-90
2022/11/13 10:36:37;;;;;;;16.10;14.07;;;9.70;99.90;;;;;;5076273;28;20221;-88
2022/11/13 10:39:06;;;;;;;15.73;14.03;;;9.80;99.90;;;;;;5076093;28;20213;-91
2022/11/13 10:41:33;;;;;;;14.93;13.40;;;9.90;99.90;;;;;;5076533;28;20212;-91
2022/11/13 10:44:18;;;;;;;14.43;12.93;;;10.00;99.90;;;;;;5078101;28;20599;-88
2022/11/13 10:46:45;;;;;;;14.00;12.53;;;9.90;99.90;;;;;;5083876;28;20194;-89
2022/11/13 10:49:18;;;;;;;13.73;12.37;;;9.90;99.90;;;;;;5094380;28;20257;-89
2022/11/13 10:51:54;;;;;;;13.30;11.93;;;10.00;99.90;;;;;;5085309;28;20209;-88
2022/11/13 10:54:24;;;;;;;13.63;12.23;;;10.00;99.90;;;;;;5075545;28;20220;-88
2022/11/13 10:56:58;;;;;;;13.47;11.97;;;10.10;99.90;;;;;;5075410;28;20214;-88
2022/11/13 10:59:25;;;;;;;16.93;12.27;;;10.20;99.90;;;;;;5075323;28;20227;-85
2022/11/13 11:01:52;;;;;;;14.05;12.05;;;10.40;99.90;;;;;;5075230;28;20911;-90
2022/11/13 11:04:26;;;;;;;13.10;11.23;;;10.50;99.90;;;;;;5075161;28;20681;-88
2022/11/13 11:06:54;;;;;;;11.87;10.67;;;10.50;99.90;;;;;;5075349;28;20222;-88
2022/11/13 11:09:25;;;;;;;11.53;10.33;;;10.40;99.90;;;;;;5075059;28;20613;-88
2022/11/13 11:12:17;;;;;;;11.73;10.00;;;10.50;99.90;;;;;;5075140;28;20203;-88
2022/11/13 11:14:58;;;;;;;10.60;9.57;;;10.70;99.90;;;;;;5074877;28;20310;-88
2022/11/13 11:17:31;;;;;;;11.33;9.90;;;10.80;99.90;;;;;;5075131;28;20553;-88
2022/11/13 11:20:05;;;;;;;11.07;9.87;;;10.80;99.90;;;;;;5074989;28;20202;-87
2022/11/13 11:22:35;;;;;;;12.83;9.93;;;10.90;99.90;;;;;;5074997;28;20692;-88
2022/11/13 11:25:06;;;;;;;12.17;9.40;;;11.10;99.90;;;;;;5075215;28;20211;-87
2022/11/13 11:27:37;;;;;;;10.70;9.60;;;11.10;99.90;;;;;;5075055;28;20229;-88
2022/11/13 11:30:07;;;;;;;11.37;8.73;;;11.20;99.90;;;;;;5074966;28;20204;-87
2022/11/13 11:32:38;;;;;;;10.57;9.18;;;11.30;99.90;;;;;;5074659;28;20455;-88
2022/11/13 11:35:15;;;;;;;11.10;8.63;;;11.30;99.90;;;;;;5074878;28;20194;-88
2022/11/13 11:37:51;;;;;;;9.57;8.57;;;11.50;99.90;;;;;;5056865;28;20195;-87
2022/11/13 11:40:26;;;;;;;8.60;7.80;;;11.80;99.90;;;;;;5074546;28;20571;-88
2022/11/13 11:43:05;;;;;;;9.80;8.80;;;11.80;99.90;;;;;;5074412;28;20228;-88
2022/11/13 11:45:36;;;;;;;8.70;7.80;;;11.90;99.90;;;;;;5074311;28;20205;-88
2022/11/13 11:48:08;;;;;;;11.03;9.27;;;12.10;99.90;;;;;;5074933;28;20557;-90
2022/11/13 11:50:42;;;;;;;9.33;8.10;;;12.30;99.90;;;;;;5053223;28;20566;-92
2022/11/13 11:53:15;;;;;;;11.17;8.27;;;12.40;99.90;;;;;;5053085;28;20217;-90
2022/11/13 11:56:00;;;;;;;11.33;9.17;;;12.40;99.90;;;;;;5044156;28;20209;-92
2022/11/13 11:59:09;;;;;;;9.90;8.90;;;12.60;99.90;;;;;;5054277;28;20228;-88
2022/11/13 12:01:53;;;;;;;9.27;8.37;;;12.70;99.90;;;;;;5042364;28;20218;-87
2022/11/13 12:04:50;;;;;;;10.63;8.37;;;12.80;99.90;;;;;;5056927;28;20228;-88
2022/11/13 12:07:37;;;;;;;8.70;7.83;;;12.90;99.90;;;;;;5048320;28;20222;-89
2022/11/13 12:10:24;;;;;;;8.37;7.43;;;13.10;99.90;;;;;;5043190;28;20218;-88
2022/11/13 12:13:22;;;;;;;8.57;7.67;;;13.20;99.90;;;;;;5039563;28;20206;-91
2022/11/13 12:16:02;;;;;;;8.90;8.00;;;13.40;99.90;;;;;;5051456;28;20575;-90
2022/11/13 12:18:53;;;;;;;8.27;7.37;;;13.50;99.90;;;;;;5054432;28;20328;-88
2022/11/13 12:21:38;;;;;;;8.60;7.83;;;13.10;99.90;;;;;;5024083;28;20202;-90
2022/11/13 12:24:46;;;;;;;9.00;7.90;;;13.40;99.90;;;;;;5054047;28;20235;-89
2022/11/13 12:27:25;;;;;;;8.73;7.93;;;13.60;99.90;;;;;;5041252;28;20572;-90
2022/11/13 12:30:14;;;;;;;8.20;7.27;;;13.80;99.90;;;;;;5053910;28;20206;-89
2022/11/13 12:33:06;;;;;;;8.87;7.97;;;14.00;99.90;;;;;;5053901;28;20214;-88
2022/11/13 12:35:35;;;;;;;8.43;7.50;;;14.10;99.90;;;;;;5054334;28;20215;-89
2022/11/13 12:38:28;;;;;;;12.73;8.17;;;14.20;99.90;;;;;;5054365;28;20212;-89
2022/11/13 12:41:02;;;;;;;7.70;7.00;;;14.30;99.90;;;;;;5053647;28;20214;-89
2022/11/13 12:44:14;;;;;;;8.00;7.20;;;14.10;99.90;;;;;;5053731;28;20222;-89
2022/11/13 12:46:50;;;;;;;9.73;7.70;;;14.10;99.90;;;;;;4992810;28;20213;-89
2022/11/13 12:49:30;;;;;;;8.47;7.40;;;14.10;99.90;;;;;;5043155;28;20226;-88
2022/11/13 12:51:59;;;;;;;8.70;7.07;;;14.10;99.90;;;;;;5053958;28;20195;-88
2022/11/13 12:54:28;;;;;;;7.77;6.97;;;13.70;99.90;;;;;;5056053;28;20209;-88
2022/11/13 12:57:16;;;;;;;7.93;7.07;;;13.60;99.90;;;;;;5040409;28;20211;-88